Time;durP1;ratioP1;P1;durP2;ratioP2;P2;SDS_P1;SDS_P2;PMS_P1;PMS_P2;Temp;Humidity;BMP_temperature;BMP_pressure;BME280_temperature;BME280_humidity;BME280_pressure;Samples;Min_cycle;Max_cycle;Signal;HPM_P1;HPM_P2
2023/01/05 00:01:45;;;;;;;22.67;3.50;;;;;;;14.66;57.84;101556.72;4963250;28;114558;-68
2023/01/05 00:04:12;;;;;;;21.52;3.75;;;;;;;14.65;58.25;101560.31;4953652;28;124561;-67
2023/01/05 00:06:40;;;;;;;20.65;4.10;;;;;;;14.66;58.34;101546.06;4963458;28;125596;-67
2023/01/05 00:09:11;;;;;;;23.30;4.22;;;;;;;14.66;58.31;101562.03;4967574;28;113705;-67
2023/01/05 00:22:54;;;;;;;22.73;3.80;;;;;;;14.65;58.26;101544.31;4962515;28;115142;-67
2023/01/05 00:25:28;;;;;;;21.85;3.80;;;;;;;14.66;58.37;101546.06;4966380;28;123698;-67
2023/01/05 00:27:57;;;;;;;24.27;3.78;;;;;;;14.64;58.26;101547.94;4960344;28;124043;-68
2023/01/05 00:30:28;;;;;;;19.23;3.70;;;;;;;14.60;58.28;101550.75;4964179;28;114448;-67
2023/01/05 00:32:55;;;;;;;21.58;4.00;;;;;;;14.58;58.24;101563.28;4963067;28;114053;-67
2023/01/05 00:35:23;;;;;;;19.10;3.70;;;;;;;14.57;58.15;101553.56;4962978;28;124689;-67
2023/01/05 00:37:50;;;;;;;22.40;3.83;;;;;;;14.57;58.19;101564.22;4964884;28;123239;-67
2023/01/05 00:40:21;;;;;;;28.75;4.13;;;;;;;14.56;58.41;101559.81;4965829;28;115475;-68
2023/01/05 00:42:48;;;;;;;24.65;3.63;;;;;;;14.57;58.34;101553.56;4960442;28;114220;-67
2023/01/05 00:45:18;;;;;;;19.23;3.97;;;;;;;14.57;58.20;101564.22;4962363;28;124321;-67
2023/01/05 00:47:45;;;;;;;23.02;3.47;;;;;;;14.57;58.25;101542.88;4965449;28;124509;-67
2023/01/05 00:50:15;;;;;;;24.25;3.80;;;;;;;14.58;58.40;101543.78;4968548;28;113785;-67
2023/01/05 00:52:42;;;;;;;23.10;3.55;;;;;;;14.58;58.36;101538.44;4967613;28;114043;-67
2023/01/05 00:55:10;;;;;;;20.00;4.28;;;;;;;14.57;58.16;101542.88;4965489;28;123530;-67
2023/01/05 00:57:37;;;;;;;25.35;3.83;;;;;;;14.56;58.25;101546.47;4968636;28;125157;-68
2023/01/05 01:00:10;;;;;;;22.10;3.72;;;;;;;14.55;58.21;101550.06;4967995;28;114313;-67
2023/01/05 01:02:37;;;;;;;23.10;3.88;;;;;;;14.52;58.09;101550.25;4963862;28;114658;-67
2023/01/05 01:05:06;;;;;;;25.00;4.18;;;;;;;14.49;58.27;101555.72;4965877;28;125301;-67
2023/01/05 01:07:33;;;;;;;24.58;3.70;;;;;;;14.47;58.21;101557.59;4964347;28;124363;-67
2023/01/05 01:10:04;;;;;;;24.27;4.10;;;;;;;14.45;58.04;101551.47;4969278;28;114992;-67
2023/01/05 01:12:31;;;;;;;22.52;3.95;;;;;;;14.42;58.21;101551.63;4966736;28;115217;-67
2023/01/05 01:14:58;;;;;;;20.23;3.65;;;;;;;14.39;58.27;101565.97;4965409;28;123911;-67
2023/01/05 01:17:25;;;;;;;19.63;3.63;;;;;;;14.37;58.17;101562.53;4967462;28;124535;-66
2023/01/05 01:19:52;;;;;;;22.75;3.75;;;;;;;14.35;58.34;101563.53;4965563;28;113707;-67
2023/01/05 01:22:19;;;;;;;25.98;4.00;;;;;;;14.31;58.37;101572.63;4967961;28;115034;-67
2023/01/05 01:24:46;;;;;;;21.45;3.90;;;;;;;14.29;58.34;101574.50;4967331;28;124422;-67
2023/01/05 01:27:14;;;;;;;25.92;3.88;;;;;;;14.26;58.27;101580.84;4967628;28;124167;-67
2023/01/05 01:29:41;;;;;;;19.77;3.75;;;;;;;14.23;58.69;101580.97;4951227;28;113567;-67
2023/01/05 01:32:08;;;;;;;21.73;3.47;;;;;;;14.19;58.39;101577.59;4965810;28;117793;-67
2023/01/05 01:34:35;;;;;;;19.23;3.72;;;;;;;14.16;58.42;101585.72;4967296;28;124500;-67
2023/01/05 01:37:02;;;;;;;22.65;3.65;;;;;;;14.13;58.50;101591.22;4966363;28;124176;-66
2023/01/05 01:39:34;;;;;;;24.95;3.80;;;;;;;14.13;58.42;101596.56;4966649;28;114701;-67
2023/01/05 01:42:12;;;;;;;21.83;3.47;;;;;;;14.09;58.42;101600.31;4965908;28;115569;-67
2023/01/05 01:44:56;;;;;;;;;;;;;;;14.05;58.74;101606.69;4966575;28;125885;-67
2023/01/05 01:47:38;;;;;;;24.77;3.63;;;;;;;14.03;58.70;101608.56;4965171;28;125883;-67
2023/01/05 01:50:16;;;;;;;18.50;3.20;;;;;;;13.99;58.76;101609.66;4965600;28;114797;-67
2023/01/05 01:52:46;;;;;;;25.17;3.60;;;;;;;13.97;58.80;101606.19;4970554;28;114410;-67
2023/01/05 01:55:13;;;;;;;21.42;3.83;;;;;;;13.93;58.80;101615.28;4966406;28;124592;-67
2023/01/05 01:57:42;;;;;;;22.33;4.05;;;;;;;13.93;58.93;101625.94;4967738;28;124380;-67
2023/01/05 02:00:13;;;;;;;19.02;3.28;;;;;;;13.92;58.99;101629.50;4964108;28;114388;-67
2023/01/05 02:02:46;;;;;;;27.17;3.42;;;;;;;13.91;58.96;101627.81;4965610;28;114688;-67
2023/01/05 02:05:20;;;;;;;20.55;3.47;;;;;;;13.91;58.92;101625.13;4977356;28;124614;-67
2023/01/05 02:07:47;;;;;;;28.92;4.45;;;;;;;13.91;59.00;101633.13;4963061;28;122078;-67
2023/01/05 02:10:19;;;;;;;24.00;4.25;;;;;;;13.90;59.10;101631.38;4969020;28;114143;-67
2023/01/05 02:12:56;;;;;;;20.52;3.53;;;;;;;13.90;59.21;101629.59;4958481;28;114559;-67
2023/01/05 02:16:15;;;;;;;22.00;3.95;;;;;;;13.89;59.20;101627.88;4965311;28;124158;-67
2023/01/05 02:19:19;;;;;;;21.15;3.40;;;;;;;13.88;59.19;101617.28;4916864;28;124929;-68
2023/01/05 02:22:25;;;;;;;15.93;3.47;;;;;;;13.86;59.14;101629.81;4962878;28;114287;-67
2023/01/05 02:25:09;;;;;;;25.63;3.83;;;;;;;13.83;59.05;101621.03;4960223;28;114167;-68
2023/01/05 02:27:39;;;;;;;21.65;3.78;;;;;;;13.84;59.19;101624.53;4965398;28;124624;-67
2023/01/05 02:30:24;;;;;;;24.10;3.88;;;;;;;13.84;59.43;101637.84;4949858;28;122763;-67
2023/01/05 02:33:05;;;;;;;23.75;3.33;;;;;;;13.85;59.28;101628.94;4962627;28;114132;-67
2023/01/05 02:36:02;;;;;;;20.27;3.80;;;;;;;13.86;59.48;101624.47;4961482;28;115597;-67
2023/01/05 02:38:42;;;;;;;21.85;4.07;;;;;;;13.86;59.42;101624.47;4966536;28;125178;-67
2023/01/05 02:41:25;;;;;;;20.45;3.58;;;;;;;13.84;59.50;101616.56;4966997;28;125326;-67
2023/01/05 02:43:55;;;;;;;25.20;3.45;;;;;;;13.85;59.44;101617.44;4957108;28;114272;-67
2023/01/05 02:46:23;;;;;;;21.38;3.75;;;;;;;13.85;59.59;101609.44;4961892;28;116120;-67
2023/01/05 02:48:52;;;;;;;23.05;3.63;;;;;;;13.86;59.42;101619.16;4958577;28;125560;-67
2023/01/05 02:51:25;;;;;;;25.05;3.67;;;;;;;13.86;59.55;101614.69;4947971;28;124334;-67
2023/01/05 02:54:00;;;;;;;24.77;3.60;;;;;;;13.88;59.42;101627.94;4966472;28;114057;-67
2023/01/05 02:56:35;;;;;;;26.10;3.80;;;;;;;13.88;59.52;101622.59;4971365;28;114420;-67
2023/01/05 02:59:27;;;;;;;18.02;3.33;;;;;;;13.90;59.58;101626.06;4966981;28;125990;-67
2023/01/05 03:02:00;;;;;;;20.25;3.67;;;;;;;13.90;59.41;101626.06;4962646;28;124903;-67
2023/01/05 03:04:45;;;;;;;22.77;3.63;;;;;;;13.89;59.56;101629.69;4962826;28;114583;-66
2023/01/05 03:07:16;;;;;;;20.88;3.72;;;;;;;13.92;59.58;101634.84;4957565;28;112914;-67
2023/01/05 03:09:45;;;;;;;26.90;3.60;;;;;;;13.91;59.60;101633.13;4946846;28;125668;-67
2023/01/05 03:15:36;;;;;;;21.10;3.85;;;;;;;13.93;59.66;101642.75;4964074;28;115150;-67
2023/01/05 03:18:06;;;;;;;30.60;4.45;;;;;;;13.94;59.77;101638.31;4943373;28;114286;-67
2023/01/05 03:20:40;;;;;;;;;;;;;;;13.96;59.69;101644.44;4963786;28;125022;-67
2023/01/05 03:37:44;;;;;;;18.77;3.80;;;;;;;14.07;59.74;101639.47;4963440;28;114800;-67
2023/01/05 03:40:17;;;;;;;19.42;4.22;;;;;;;14.09;59.80;101637.59;4950494;28;115703;-67
2023/01/05 03:42:45;;;;;;;22.67;3.47;;;;;;;14.12;59.70;101636.59;4966934;28;124143;-67
2023/01/05 03:45:15;;;;;;;30.00;4.43;;;;;;;14.14;59.68;101651.53;4960724;28;122867;-67
2023/01/05 03:47:42;;;;;;;20.42;3.40;;;;;;;14.17;59.56;101630.09;4946297;28;115837;-67
2023/01/05 03:50:10;;;;;;;18.30;3.72;;;;;;;14.20;59.70;101632.63;4949035;28;113421;-68
2023/01/05 03:52:37;;;;;;;23.25;3.42;;;;;;;14.23;59.53;101638.75;4960837;28;123755;-67
2023/01/05 03:55:04;;;;;;;23.33;4.35;;;;;;;14.24;59.53;101641.34;4964207;28;123724;-67
2023/01/05 03:57:32;;;;;;;17.27;3.30;;;;;;;14.27;59.44;101637.66;4962694;28;113524;-67
2023/01/05 03:59:59;;;;;;;16.52;3.17;;;;;;;14.29;59.52;101638.44;4963733;28;113229;-67
2023/01/05 04:02:27;;;;;;;23.92;4.10;;;;;;;14.31;59.43;101647.22;4966035;28;123356;-67
2023/01/05 04:04:55;;;;;;;26.70;3.60;;;;;;;14.32;59.44;101638.31;4965455;28;123352;-67
2023/01/05 04:07:22;;;;;;;28.00;4.03;;;;;;;14.35;59.39;101638.13;4950267;28;115018;-67
2023/01/05 04:09:49;;;;;;;24.00;4.10;;;;;;;14.37;59.29;101646.91;4961007;28;113665;-67
2023/01/05 04:12:18;;;;;;;22.33;3.72;;;;;;;14.39;59.20;101650.38;4947854;28;125226;-67
2023/01/05 04:14:47;;;;;;;25.42;4.38;;;;;;;14.39;59.21;101656.59;4963935;28;125416;-66
2023/01/05 04:17:14;;;;;;;26.05;3.80;;;;;;;14.42;59.15;101655.56;4948337;28;113838;-67
2023/01/05 04:19:41;;;;;;;21.25;3.45;;;;;;;14.44;58.92;101656.34;4964529;28;114452;-67
2023/01/05 04:22:09;;;;;;;23.20;3.60;;;;;;;14.44;59.14;101653.69;4967156;28;124167;-67
2023/01/05 04:24:36;;;;;;;23.90;3.78;;;;;;;14.45;59.09;101654.53;4970794;28;124430;-67
2023/01/05 04:27:03;;;;;;;22.33;3.22;;;;;;;14.45;59.08;101650.09;4970211;28;114629;-67
2023/01/05 04:29:31;;;;;;;26.08;4.07;;;;;;;14.46;59.13;101657.13;4951758;28;114534;-67
2023/01/05 04:31:59;;;;;;;20.20;3.83;;;;;;;14.46;58.94;101656.28;4970581;28;123812;-67
2023/01/05 04:34:26;;;;;;;26.40;4.05;;;;;;;14.47;59.15;101658.88;4971731;28;123108;-67
2023/01/05 04:36:55;;;;;;;21.17;3.95;;;;;;;14.48;58.94;101660.59;4979422;28;116354;-67
2023/01/05 04:39:23;;;;;;;21.25;3.30;;;;;;;14.48;58.96;101652.59;4996151;28;115787;-66
2023/01/05 04:41:51;;;;;;;25.00;3.53;;;;;;;14.48;58.99;101657.94;4975031;28;123756;-67
2023/01/05 04:44:20;;;;;;;24.98;3.83;;;;;;;14.49;58.96;101650.81;4970038;28;124600;-67
2023/01/05 04:46:48;;;;;;;18.63;4.60;;;;;;;14.49;59.08;101651.69;4967054;28;114570;-67
2023/01/05 04:49:16;;;;;;;21.05;3.80;;;;;;;14.50;59.02;101668.53;4949521;28;114947;-67
2023/01/05 04:51:47;;;;;;;24.45;3.80;;;;;;;14.50;59.10;101664.03;4967620;28;125044;-67
2023/01/05 04:54:15;;;;;;;24.55;3.53;;;;;;;14.51;59.00;101659.59;4966794;28;125280;-67
2023/01/05 04:56:43;;;;;;;20.85;3.97;;;;;;;14.50;58.94;101661.38;4969059;28;115988;-68
2023/01/05 04:59:10;;;;;;;19.30;3.78;;;;;;;14.52;58.94;101664.88;4968646;28;115303;-68
2023/01/05 05:01:38;;;;;;;24.90;4.35;;;;;;;14.52;59.13;101667.53;4949564;28;122282;-68
2023/01/05 05:04:09;;;;;;;19.33;3.63;;;;;;;14.52;58.97;101670.19;4951591;28;122640;-68
2023/01/05 05:06:36;;;;;;;19.45;3.03;;;;;;;14.53;59.00;101663.91;4964634;28;115098;-68
2023/01/05 05:09:05;;;;;;;17.13;3.72;;;;;;;14.53;59.23;101669.25;4964575;28;112797;-68
2023/01/05 05:11:35;;;;;;;20.52;3.03;;;;;;;14.54;59.11;101668.31;4965514;28;125075;-68
2023/01/05 05:14:02;;;;;;;19.55;3.72;;;;;;;14.56;59.08;101673.56;4969752;28;124077;-68
2023/01/05 05:16:29;;;;;;;23.48;4.05;;;;;;;14.55;58.92;101672.69;4965548;28;114903;-68
2023/01/05 05:18:57;;;;;;;21.23;3.35;;;;;;;14.56;58.90;101662.88;4963304;28;114295;-68
2023/01/05 05:21:26;;;;;;;16.30;3.63;;;;;;;14.56;59.06;101679.78;4947555;28;124607;-68
2023/01/05 05:23:53;;;;;;;25.70;4.05;;;;;;;14.56;58.90;101685.09;4965085;28;124597;-68
2023/01/05 05:26:20;;;;;;;23.83;4.55;;;;;;;14.56;59.02;101687.75;4967286;28;115631;-68
2023/01/05 05:28:49;;;;;;;20.20;3.60;;;;;;;14.56;58.85;101690.44;4967479;28;114923;-68
2023/01/05 05:31:16;;;;;;;27.65;3.97;;;;;;;14.57;58.89;101688.66;4966616;28;124874;-68
2023/01/05 05:33:43;;;;;;;25.95;3.92;;;;;;;14.57;59.08;101702.84;4961937;28;125297;-68
2023/01/05 05:36:10;;;;;;;19.95;3.53;;;;;;;14.56;58.92;101695.75;4978166;28;114408;-68
2023/01/05 05:38:37;;;;;;;25.55;3.55;;;;;;;14.56;58.93;101690.44;4967008;28;112953;-68
2023/01/05 05:41:04;;;;;;;19.52;3.75;;;;;;;14.57;58.84;101700.19;4965506;28;123883;-68
2023/01/05 05:43:31;;;;;;;22.73;3.78;;;;;;;14.56;58.93;101701.09;4968918;28;124145;-68
2023/01/05 05:45:58;;;;;;;18.38;3.33;;;;;;;14.57;58.84;101699.31;4965781;28;114168;-68
2023/01/05 05:48:25;;;;;;;21.75;3.30;;;;;;;14.57;58.98;101710.84;4966238;28;113973;-68
2023/01/05 05:50:52;;;;;;;22.65;3.70;;;;;;;14.57;58.98;101708.16;4960683;28;124782;-68
2023/01/05 05:53:19;;;;;;;25.63;3.35;;;;;;;14.56;58.93;101714.44;4964445;28;124367;-68
2023/01/05 05:55:48;;;;;;;26.40;3.97;;;;;;;14.56;58.99;101717.09;4967289;28;114898;-68
2023/01/05 05:58:17;;;;;;;21.00;3.67;;;;;;;14.56;59.07;101717.09;4964666;28;114484;-68
2023/01/05 06:00:45;;;;;;;15.20;3.25;;;;;;;14.57;59.36;101726.84;4969158;28;124667;-68
2023/01/05 06:03:12;;;;;;;29.40;4.00;;;;;;;14.58;58.87;101731.25;4966408;28;124530;-68
2023/01/05 06:05:39;;;;;;;25.85;3.65;;;;;;;14.57;58.94;101734.81;4966058;28;114181;-68
2023/01/05 06:08:06;;;;;;;18.55;3.40;;;;;;;14.58;59.01;101741.91;4965501;28;114606;-68
2023/01/05 06:10:33;;;;;;;25.77;3.53;;;;;;;14.58;58.83;101744.56;4968288;28;125571;-68
2023/01/05 06:13:00;;;;;;;19.25;4.18;;;;;;;14.59;59.07;101748.94;4950475;28;123829;-68
2023/01/05 06:15:27;;;;;;;18.92;4.05;;;;;;;14.58;59.01;101741.91;4949664;28;114920;-68
2023/01/05 06:17:54;;;;;;;23.30;4.15;;;;;;;14.59;58.99;101751.63;4967965;28;114748;-68
2023/01/05 06:20:21;;;;;;;22.10;4.28;;;;;;;14.57;59.16;101756.16;4962242;28;124056;-68
2023/01/05 06:22:48;;;;;;;27.38;4.20;;;;;;;14.57;59.20;101756.16;4969047;28;124193;-68
2023/01/05 06:25:16;;;;;;;22.73;3.95;;;;;;;14.56;58.95;101762.41;4964354;28;114507;-68
2023/01/05 06:27:43;;;;;;;22.50;4.00;;;;;;;14.57;59.24;101756.16;4969370;28;114072;-68
2023/01/05 06:30:10;;;;;;;25.52;4.30;;;;;;;14.57;59.20;101766.81;4962861;28;124011;-68
2023/01/05 06:32:37;;;;;;;23.00;3.40;;;;;;;14.57;59.04;101772.16;4966011;28;124299;-68
2023/01/05 06:35:05;;;;;;;29.05;4.28;;;;;;;14.56;59.18;101765.06;4961377;28;113164;-69
2023/01/05 06:37:32;;;;;;;24.92;3.85;;;;;;;14.56;59.26;101769.53;4966947;28;113712;-68
2023/01/05 06:40:00;;;;;;;29.38;4.22;;;;;;;14.57;59.21;101776.63;4957656;28;123019;-68
2023/01/05 06:42:27;;;;;;;28.33;4.65;;;;;;;14.55;59.20;101778.47;4966377;28;123844;-68
2023/01/05 06:44:54;;;;;;;26.98;3.83;;;;;;;14.56;59.25;101775.75;4965452;28;116924;-68
2023/01/05 06:47:21;;;;;;;27.98;4.22;;;;;;;14.55;59.32;101784.66;4963017;28;115014;-68
2023/01/05 06:49:48;;;;;;;22.58;4.25;;;;;;;14.51;59.28;101788.41;4965959;28;124108;-68
2023/01/05 06:52:15;;;;;;;23.60;3.58;;;;;;;14.49;59.41;101790.28;4961143;28;125262;-69
2023/01/05 06:54:43;;;;;;;25.85;3.97;;;;;;;14.47;59.51;101788.63;4966279;28;113544;-68
2023/01/05 06:57:10;;;;;;;24.77;3.88;;;;;;;14.43;59.57;101790.56;4964450;28;113928;-68
2023/01/05 06:59:38;;;;;;;24.58;3.88;;;;;;;14.41;59.65;101798.63;4964272;28;124717;-68
2023/01/05 07:02:11;;;;;;;21.73;3.53;;;;;;;14.40;59.89;101801.38;4968780;28;123814;-68
2023/01/05 07:04:39;;;;;;;20.50;3.35;;;;;;;14.37;59.79;101797.06;4962224;28;116000;-68
2023/01/05 07:07:06;;;;;;;21.52;3.28;;;;;;;14.36;59.62;101805.13;4960552;28;114990;-68
2023/01/05 07:09:33;;;;;;;21.52;3.15;;;;;;;14.35;60.11;101806.03;4964213;28;124160;-68
2023/01/05 07:12:00;;;;;;;22.33;3.63;;;;;;;14.34;60.00;101799.00;4953724;28;125255;-68
2023/01/05 07:14:27;;;;;;;22.40;4.35;;;;;;;14.33;59.84;101799.91;4966084;28;115091;-68
2023/01/05 07:16:54;;;;;;;24.17;3.28;;;;;;;14.31;59.85;101807.97;4963862;28;112813;-68
2023/01/05 07:19:21;;;;;;;22.75;3.30;;;;;;;14.31;60.00;101796.44;4940367;28;123563;-68
2023/01/05 07:21:49;;;;;;;27.42;4.18;;;;;;;14.30;60.01;101810.72;4963123;28;124690;-68
2023/01/05 07:24:22;;;;;;;20.83;3.42;;;;;;;14.28;59.98;101807.25;4963100;28;114224;-68
2023/01/05 07:26:50;;;;;;;21.15;3.47;;;;;;;14.28;59.94;101807.25;4964506;28;114039;-68
2023/01/05 07:29:17;;;;;;;21.67;4.32;;;;;;;14.27;59.99;101810.84;4962774;28;124187;-68
2023/01/05 07:31:46;;;;;;;20.05;3.90;;;;;;;14.28;59.93;101807.25;4965878;28;123931;-68
2023/01/05 07:34:13;;;;;;;23.33;4.13;;;;;;;14.28;60.08;101816.13;4962231;28;114231;-68
2023/01/05 07:36:40;;;;;;;27.05;4.13;;;;;;;14.28;59.88;101807.25;4961682;28;114003;-68
2023/01/05 07:39:07;;;;;;;23.60;3.72;;;;;;;14.28;59.98;101812.56;4959108;28;124071;-67
2023/01/05 07:41:34;;;;;;;27.00;4.07;;;;;;;14.28;59.91;101823.22;4964040;28;123839;-67
2023/01/05 07:44:01;;;;;;;26.17;3.50;;;;;;;14.28;59.89;101823.22;4965903;28;113610;-68
2023/01/05 07:46:29;;;;;;;22.98;3.47;;;;;;;14.29;59.81;101824.97;4964661;28;113852;-67
2023/01/05 07:48:57;;;;;;;25.35;3.92;;;;;;;14.28;59.80;101828.56;4959821;28;125050;-68
2023/01/05 07:51:24;;;;;;;22.75;3.80;;;;;;;14.28;59.81;101829.44;4963311;28;124352;-67
2023/01/05 07:53:52;;;;;;;22.77;3.33;;;;;;;14.29;59.81;101835.63;4969493;28;115551;-68
2023/01/05 07:56:19;;;;;;;20.98;3.72;;;;;;;14.30;59.75;101837.38;4971494;28;115261;-68
2023/01/05 07:58:46;;;;;;;17.85;3.28;;;;;;;14.30;59.85;101837.38;4970873;28;124123;-68
2023/01/05 08:01:14;;;;;;;24.25;3.67;;;;;;;14.31;59.71;101833.75;4966960;28;121575;-67
2023/01/05 08:03:41;;;;;;;32.30;4.00;;;;;;;14.31;59.84;101839.94;4968411;28;114106;-68
2023/01/05 08:06:14;;;;;;;30.45;3.72;;;;;;;14.33;59.81;101839.88;4963174;28;114359;-68
2023/01/05 08:08:42;;;;;;;23.55;3.70;;;;;;;14.35;59.77;101848.69;4959499;28;124400;-68
2023/01/05 08:11:10;;;;;;;17.52;3.33;;;;;;;14.35;59.75;101856.66;4962364;28;124020;-68
2023/01/05 08:16:23;;;;;;;;;;;;;;;14.34;59.82;101860.28;4958216;28;113766;-68
2023/01/05 08:18:51;;;;;;;18.10;3.70;;;;;;;14.35;59.60;101862.00;4964682;28;124340;-68
2023/01/05 08:21:18;;;;;;;22.77;3.97;;;;;;;14.35;59.63;101864.66;4963731;28;124619;-68
2023/01/05 08:23:45;;;;;;;27.58;4.40;;;;;;;14.36;59.68;101869.06;4964890;28;115425;-67
2023/01/05 08:26:15;;;;;;;24.05;3.47;;;;;;;14.35;59.64;101867.31;4966181;28;114196;-67
2023/01/05 08:28:43;;;;;;;22.08;3.95;;;;;;;14.35;59.93;101870.00;4966171;28;124080;-67
2023/01/05 08:31:16;;;;;;;24.05;4.03;;;;;;;14.35;59.74;101875.31;4965321;28;124799;-68
2023/01/05 08:33:50;;;;;;;26.50;3.95;;;;;;;14.38;59.65;101877.88;4951095;28;113423;-68
2023/01/05 08:36:19;;;;;;;27.20;3.97;;;;;;;14.38;59.57;101877.88;4961761;28;114901;-68
2023/01/05 08:38:49;;;;;;;23.13;4.38;;;;;;;14.38;59.67;101877.88;4961830;28;124705;-68
2023/01/05 08:41:26;;;;;;;21.45;3.75;;;;;;;14.38;59.53;101883.19;4960425;28;123422;-68
2023/01/05 08:43:55;;;;;;;19.30;3.85;;;;;;;14.37;59.65;101887.66;4958154;28;115829;-68
2023/01/05 08:46:25;;;;;;;24.58;3.70;;;;;;;14.37;59.68;101897.44;4967383;28;114882;-68
2023/01/05 08:48:55;;;;;;;23.13;4.05;;;;;;;14.38;59.61;101893.84;4965806;28;125237;-67
2023/01/05 08:51:23;;;;;;;23.75;3.65;;;;;;;14.39;59.77;101900.91;4963105;28;123824;-68
2023/01/05 08:53:51;;;;;;;23.52;3.65;;;;;;;14.38;59.70;101893.84;4965528;28;114320;-68
2023/01/05 08:56:19;;;;;;;29.98;4.15;;;;;;;14.40;59.69;101907.97;4962727;28;115364;-68
2023/01/05 08:58:46;;;;;;;20.00;3.30;;;;;;;14.43;59.56;101910.53;4964884;28;124486;-68
2023/01/05 09:01:16;;;;;;;24.67;3.60;;;;;;;14.44;59.64;101912.22;4961749;28;123301;-67
2023/01/05 09:03:43;;;;;;;19.90;3.10;;;;;;;14.46;59.70;101913.03;4967391;28;114268;-67
2023/01/05 09:06:11;;;;;;;24.02;4.45;;;;;;;14.46;59.53;101918.38;4944607;28;114213;-68
2023/01/05 09:08:40;;;;;;;24.40;4.50;;;;;;;14.47;59.58;101914.78;4950007;28;123039;-68
2023/01/05 09:11:13;;;;;;;19.98;4.22;;;;;;;14.48;59.56;101921.81;4940843;28;124429;-68
2023/01/05 09:13:41;;;;;;;23.25;3.95;;;;;;;14.49;59.56;101928.91;4950778;28;114631;-67
2023/01/05 09:16:14;;;;;;;22.38;3.15;;;;;;;14.50;59.45;101929.75;4950184;28;112860;-68
2023/01/05 09:18:51;;;;;;;23.17;3.72;;;;;;;14.50;59.48;101937.75;4938825;28;123275;-68
2023/01/05 09:21:18;;;;;;;23.63;3.97;;;;;;;14.51;59.55;101943.03;4951965;28;124275;-68
2023/01/05 09:23:45;;;;;;;21.50;3.53;;;;;;;14.52;59.49;101947.44;4952107;28;113857;-67
2023/01/05 09:26:14;;;;;;;22.95;3.55;;;;;;;14.53;59.50;101946.50;4951653;28;113946;-67
2023/01/05 09:28:41;;;;;;;22.70;3.58;;;;;;;14.54;59.51;101948.22;4951314;28;123902;-67
2023/01/05 09:31:14;;;;;;;26.23;3.75;;;;;;;14.55;59.41;101949.94;4951396;28;123394;-67
2023/01/05 09:33:42;;;;;;;24.10;3.63;;;;;;;14.56;59.41;101951.69;4961659;28;115250;-67
2023/01/05 09:36:11;;;;;;;24.45;3.70;;;;;;;14.57;59.41;101958.78;4949895;28;115972;-67
2023/01/05 09:38:38;;;;;;;26.20;4.00;;;;;;;14.59;59.29;101964.03;4965959;28;124399;-67
2023/01/05 09:41:22;;;;;;;21.77;4.38;;;;;;;14.60;59.44;101963.97;4959445;28;124123;-67
2023/01/05 09:43:54;;;;;;;27.13;4.30;;;;;;;14.62;59.28;101961.25;4946938;28;114681;-67
2023/01/05 09:46:34;;;;;;;28.58;4.22;;;;;;;14.62;59.42;101965.69;4933656;28;114484;-67
2023/01/05 09:49:05;;;;;;;26.35;3.67;;;;;;;14.63;59.40;101962.13;4949236;28;124111;-66
2023/01/05 09:51:33;;;;;;;29.60;4.15;;;;;;;14.64;59.39;101969.19;4951396;28;123663;-67
2023/01/05 09:54:01;;;;;;;28.02;4.43;;;;;;;14.65;59.21;101971.75;4963582;28;114237;-66
2023/01/05 09:56:30;;;;;;;28.95;4.25;;;;;;;14.66;59.21;101978.00;4969996;28;114000;-67
2023/01/05 09:59:23;;;;;;;24.60;3.90;;;;;;;14.65;59.31;101977.09;4965350;28;123961;-67
2023/01/05 10:01:53;;;;;;;18.48;3.33;;;;;;;14.68;59.33;101981.44;4950350;28;123695;-67
2023/01/05 10:04:22;;;;;;;20.83;3.40;;;;;;;14.70;58.87;101979.59;4952338;28;114063;-67
2023/01/05 10:07:01;;;;;;;23.58;4.20;;;;;;;14.70;59.28;101984.91;4957451;28;114959;-67
2023/01/05 10:09:37;;;;;;;27.58;4.50;;;;;;;14.70;59.20;101987.56;4954854;28;124874;-66
2023/01/05 10:15:12;;;;;;;26.60;4.13;;;;;;;14.73;59.19;101982.09;4948631;28;114410;-67
2023/01/05 10:17:40;;;;;;;20.50;3.63;;;;;;;14.73;59.05;101984.75;4965786;28;114697;-67
2023/01/05 10:20:36;;;;;;;17.05;3.30;;;;;;;14.72;59.15;101993.72;4951038;28;124723;-67
2023/01/05 10:23:11;;;;;;;23.23;3.47;;;;;;;14.72;59.16;101999.03;4951760;28;123945;-67
2023/01/05 10:25:47;;;;;;;27.48;3.97;;;;;;;14.74;59.18;101997.16;4954500;28;115254;-67
2023/01/05 10:28:17;;;;;;;19.95;3.15;;;;;;;14.76;59.05;101995.31;4941802;28;115353;-67
2023/01/05 10:30:59;;;;;;;20.70;3.40;;;;;;;14.76;59.09;101984.63;4935149;28;123219;-67
2023/01/05 10:33:48;;;;;;;23.48;3.95;;;;;;;14.78;59.10;101993.44;4957030;28;124675;-67
2023/01/05 10:36:34;;;;;;;27.60;4.03;;;;;;;14.82;59.10;101994.16;4944730;28;113414;-67
2023/01/05 10:39:49;;;;;;;22.38;3.83;;;;;;;14.84;59.13;102003.81;4966198;28;112848;-66
2023/01/05 10:43:02;;;;;;;30.27;3.65;;;;;;;14.87;59.21;101998.34;4952375;28;124002;-66
2023/01/05 10:45:30;;;;;;;23.05;3.97;;;;;;;14.92;58.99;101996.34;4960975;28;122656;-66
2023/01/05 10:47:58;;;;;;;26.33;4.47;;;;;;;14.93;59.07;101998.06;4961136;28;113167;-67
2023/01/05 10:50:32;;;;;;;27.65;4.50;;;;;;;14.94;58.61;101994.50;4950933;28;113687;-66
2023/01/05 10:53:10;;;;;;;26.38;4.00;;;;;;;14.97;58.99;101999.69;4941841;28;123893;-65
2023/01/05 10:55:47;;;;;;;22.98;4.47;;;;;;;15.00;58.85;101988.00;4945611;28;124427;-67
2023/01/05 10:58:46;;;;;;;25.73;4.05;;;;;;;15.03;58.73;101989.66;4948617;28;115065;-67
2023/01/05 11:01:29;;;;;;;20.08;3.85;;;;;;;15.03;58.63;101989.66;4954834;28;113058;-67
2023/01/05 11:04:14;;;;;;;25.73;3.75;;;;;;;15.06;58.69;101997.53;4948403;28;123813;-67
2023/01/05 11:07:05;;;;;;;25.30;4.35;;;;;;;15.06;58.70;102008.22;4948471;28;123553;-66
2023/01/05 11:09:37;;;;;;;21.88;4.05;;;;;;;15.10;58.87;102009.78;4951857;28;114243;-67
2023/01/05 11:12:04;;;;;;;26.77;3.97;;;;;;;15.13;58.58;102015.00;4940984;28;114105;-67
2023/01/05 11:14:39;;;;;;;21.38;3.72;;;;;;;15.14;58.59;102011.38;4954346;28;123700;-67
2023/01/05 11:17:15;;;;;;;19.98;4.13;;;;;;;15.14;58.72;102000.72;4934163;28;123866;-67
2023/01/05 11:19:46;;;;;;;24.02;3.58;;;;;;;15.18;58.61;102012.97;4959650;28;97233;-67
2023/01/05 11:22:35;;;;;;;23.52;4.18;;;;;;;15.21;58.64;102012.84;4952183;28;114347;-67
2023/01/05 11:25:14;;;;;;;22.67;4.07;;;;;;;15.23;58.70;101994.94;4961648;28;124634;-67
2023/01/05 11:27:41;;;;;;;24.92;3.70;;;;;;;15.28;58.74;102003.63;4956115;28;125363;-67
2023/01/05 11:30:14;;;;;;;21.20;3.85;;;;;;;15.31;58.46;102006.16;4967924;28;114099;-67
2023/01/05 11:32:42;;;;;;;27.55;3.95;;;;;;;15.33;58.20;102009.63;4963885;28;115540;-67
2023/01/05 11:35:36;;;;;;;22.73;4.30;;;;;;;15.33;58.44;102003.41;4963192;28;125014;-67
2023/01/05 11:38:04;;;;;;;24.90;4.05;;;;;;;15.35;58.42;102005.06;4965555;28;123947;-67
2023/01/05 11:40:34;;;;;;;23.83;4.30;;;;;;;15.35;58.19;101994.41;4962122;28;113965;-67
2023/01/05 11:43:10;;;;;;;28.63;3.90;;;;;;;15.37;58.12;101997.00;4949419;28;115701;-67
2023/01/05 11:45:47;;;;;;;19.98;4.18;;;;;;;15.36;58.12;101996.13;4949065;28;123724;-67
2023/01/05 11:48:19;;;;;;;19.58;3.83;;;;;;;15.35;58.18;101994.41;4958608;28;123739;-67
2023/01/05 11:50:52;;;;;;;23.77;4.47;;;;;;;15.34;58.07;101998.00;4956107;28;114924;-67
2023/01/05 11:53:39;;;;;;;23.30;4.47;;;;;;;15.32;58.20;101999.88;4947095;28;114276;-67
2023/01/05 11:56:09;;;;;;;27.23;4.22;;;;;;;15.32;57.79;101991.84;4964236;28;124281;-67
2023/01/05 11:58:43;;;;;;;22.40;4.05;;;;;;;15.33;58.15;102000.72;4963227;28;126312;-67
2023/01/05 12:01:47;;;;;;;26.15;4.60;;;;;;;15.35;58.19;101989.06;4966103;28;114065;-67
2023/01/05 12:04:43;;;;;;;21.65;3.80;;;;;;;15.37;58.38;101991.66;4967576;28;114563;-67